createdAt,value
2022-08-31T00:04:35.304Z,17.50
2022-08-31T00:09:37.372Z,17.40
2022-08-31T00:14:39.301Z,17.50
2022-08-31T00:19:41.246Z,17.40
2022-08-31T00:24:43.161Z,17.30
2022-08-31T00:30:01.285Z,17.30
2022-08-31T00:35:03.654Z,17.30
2022-08-31T00:40:06.602Z,17.40
2022-08-31T00:45:09.433Z,17.40
2022-08-31T00:50:13.708Z,17.30
2022-08-31T00:55:22.445Z,17.30
2022-08-31T01:00:26.921Z,17.30
2022-08-31T01:05:30.293Z,17.20
2022-08-31T01:10:35.434Z,17.10
2022-08-31T01:15:37.996Z,17.00
2022-08-31T01:20:51.940Z,17.00
2022-08-31T01:25:56.238Z,16.90
2022-08-31T01:31:06.818Z,16.90
2022-08-31T01:36:12.136Z,16.80
2022-08-31T01:41:17.476Z,16.70
2022-08-31T01:46:19.473Z,16.60
2022-08-31T01:51:22.448Z,16.60
2022-08-31T01:56:34.550Z,16.50
2022-08-31T02:01:40.375Z,16.50
2022-08-31T02:06:45.673Z,16.40
2022-08-31T02:11:47.642Z,16.40
2022-08-31T02:16:50.300Z,16.40
2022-08-31T02:21:52.227Z,16.40
2022-08-31T02:26:54.123Z,16.40
2022-08-31T02:31:57.191Z,16.50
2022-08-31T02:36:59.081Z,16.60
2022-08-31T02:42:01.058Z,16.70
2022-08-31T02:47:03.035Z,16.70
2022-08-31T02:52:05.180Z,16.70
2022-08-31T02:57:07.168Z,16.70
2022-08-31T03:02:09.467Z,16.70
2022-08-31T03:07:11.519Z,16.60
2022-08-31T03:12:13.674Z,16.60
2022-08-31T03:17:15.561Z,16.60
2022-08-31T03:22:17.492Z,16.70
2022-08-31T03:27:22.143Z,16.60
2022-08-31T03:32:25.417Z,16.60
2022-08-31T03:37:27.698Z,16.60
2022-08-31T03:42:29.689Z,16.60
2022-08-31T03:47:36.066Z,16.60
2022-08-31T03:52:45.420Z,16.60
2022-08-31T03:57:47.324Z,16.70
2022-08-31T04:02:49.764Z,16.60
2022-08-31T04:07:51.928Z,16.60
2022-08-31T04:12:53.989Z,16.60
2022-08-31T04:17:58.624Z,16.60
2022-08-31T04:23:00.564Z,16.50
2022-08-31T04:28:03.723Z,16.60
2022-08-31T04:33:05.801Z,16.60
2022-08-31T04:38:08.209Z,16.60
2022-08-31T04:43:13.015Z,16.60
2022-08-31T04:48:15.112Z,16.70
2022-08-31T04:53:17.638Z,16.60
2022-08-31T04:58:20.600Z,16.70
2022-08-31T05:03:23.101Z,16.60
2022-08-31T05:08:25.796Z,16.70
2022-08-31T05:13:27.881Z,16.80
2022-08-31T05:18:30.903Z,16.90
2022-08-31T05:23:32.826Z,17.00
2022-08-31T05:28:36.222Z,17.20
2022-08-31T05:33:39.706Z,17.40
2022-08-31T05:38:41.908Z,17.60
2022-08-31T05:43:43.825Z,18.00
2022-08-31T05:48:49.099Z,18.40
2022-08-31T05:53:51.843Z,18.70
2022-08-31T05:58:54.233Z,18.90
2022-08-31T06:03:57.142Z,18.90
2022-08-31T06:08:59.304Z,19.00
2022-08-31T06:14:04.118Z,19.10
2022-08-31T06:19:07.316Z,19.30
2022-08-31T06:24:12.138Z,19.50
2022-08-31T06:29:14.469Z,19.70
2022-08-31T06:34:25.163Z,20.00
2022-08-31T06:39:27.101Z,20.30
2022-08-31T06:44:29.744Z,20.40
2022-08-31T06:49:31.745Z,20.40
2022-08-31T06:54:35.158Z,20.30
2022-08-31T06:59:37.154Z,20.30
2022-08-31T07:04:39.500Z,20.30
2022-08-31T07:09:41.821Z,20.40
2022-08-31T07:14:54.528Z,20.50
2022-08-31T07:19:57.280Z,20.50
2022-08-31T07:24:59.175Z,20.20
2022-08-31T07:30:01.289Z,20.50
2022-08-31T07:35:03.858Z,20.80
2022-08-31T07:40:25.076Z,21.00
2022-08-31T07:45:30.698Z,21.30
2022-08-31T07:50:34.543Z,21.40
2022-08-31T07:55:37.095Z,21.70
2022-08-31T08:00:40.049Z,21.90
2022-08-31T08:05:43.127Z,22.00
2022-08-31T08:10:52.481Z,22.10
2022-08-31T08:15:57.849Z,22.70
2022-08-31T08:20:59.879Z,23.50
2022-08-31T08:26:08.996Z,24.10
2022-08-31T08:31:14.805Z,24.20
2022-08-31T08:36:19.217Z,24.50
2022-08-31T08:41:23.913Z,25.20
2022-08-31T08:46:58.371Z,25.70
2022-08-31T08:52:26.284Z,26.10
2022-08-31T08:57:33.258Z,26.00
2022-08-31T09:02:41.891Z,26.30
2022-08-31T09:08:18.288Z,26.10
2022-08-31T09:13:44.695Z,25.80
2022-08-31T09:18:53.118Z,25.10
2022-08-31T09:24:07.039Z,24.70
2022-08-31T09:29:14.023Z,24.80
2022-08-31T09:34:40.085Z,24.70
2022-08-31T09:39:47.787Z,24.80
2022-08-31T09:44:50.532Z,25.20
2022-08-31T09:49:56.667Z,25.70
2022-08-31T09:55:14.423Z,25.90
2022-08-31T10:00:28.560Z,25.80
2022-08-31T10:05:40.723Z,25.80
2022-08-31T10:10:45.033Z,25.70
2022-08-31T10:15:53.109Z,25.60
2022-08-31T10:21:08.817Z,25.90
2022-08-31T10:26:19.303Z,26.10
2022-08-31T10:31:46.230Z,26.10
2022-08-31T10:37:05.469Z,26.00
2022-08-31T10:42:12.266Z,26.00
2022-08-31T10:47:21.622Z,26.20
2022-08-31T10:52:48.287Z,26.20
2022-08-31T10:58:17.738Z,26.30
2022-08-31T11:04:14.163Z,26.20
2022-08-31T11:09:23.897Z,26.00
2022-08-31T11:14:45.351Z,26.10
2022-08-31T11:20:14.739Z,25.90
2022-08-31T11:25:37.657Z,25.80
2022-08-31T11:30:51.393Z,25.70
2022-08-31T11:36:07.638Z,25.50
2022-08-31T11:41:14.057Z,25.50
2022-08-31T11:46:34.591Z,25.50
2022-08-31T11:51:42.590Z,25.50
2022-08-31T11:56:47.318Z,25.40
2022-08-31T12:01:49.358Z,25.30
2022-08-31T12:06:54.887Z,25.40
2022-08-31T12:12:06.556Z,25.70
2022-08-31T12:17:31.753Z,25.80
2022-08-31T12:23:24.400Z,25.70
2022-08-31T12:29:08.471Z,25.70
2022-08-31T12:34:18.433Z,25.50
2022-08-31T12:39:23.013Z,25.20
2022-08-31T12:44:37.321Z,25.10
2022-08-31T12:49:54.655Z,25.00
2022-08-31T12:55:14.515Z,25.00
2022-08-31T13:00:35.311Z,25.00
2022-08-31T13:05:38.790Z,25.00
2022-08-31T13:10:40.662Z,25.00
2022-08-31T13:15:44.340Z,25.00
2022-08-31T13:20:46.795Z,24.70
2022-08-31T13:26:25.101Z,24.60
2022-08-31T13:31:33.579Z,24.50
2022-08-31T13:36:41.481Z,24.40
2022-08-31T13:42:07.471Z,24.50
2022-08-31T13:47:31.166Z,24.50
2022-08-31T13:52:34.884Z,24.90
2022-08-31T13:57:38.583Z,25.00
2022-08-31T14:02:40.567Z,25.00
2022-08-31T14:07:45.642Z,24.60
2022-08-31T14:12:51.688Z,24.40
2022-08-31T14:23:26.491Z,24.40
2022-08-31T14:28:40.681Z,24.30
2022-08-31T14:33:50.125Z,24.10
2022-08-31T14:38:58.665Z,23.80
2022-08-31T14:44:07.042Z,23.60
2022-08-31T14:49:09.646Z,23.50
2022-08-31T14:54:11.667Z,23.30
2022-08-31T14:59:16.051Z,23.10
2022-08-31T15:04:20.702Z,22.90
2022-08-31T15:09:22.956Z,22.90
2022-08-31T15:14:25.501Z,22.80
2022-08-31T15:19:27.913Z,22.70
2022-08-31T15:24:30.324Z,22.60
2022-08-31T15:29:33.779Z,22.60
2022-08-31T15:34:37.111Z,22.60
2022-08-31T15:39:43.360Z,22.50
2022-08-31T15:44:45.891Z,22.40
2022-08-31T15:49:47.887Z,22.30
2022-08-31T15:54:50.329Z,22.20
2022-08-31T15:59:52.594Z,22.10
2022-08-31T16:04:57.761Z,22.00
2022-08-31T16:09:59.686Z,21.90
2022-08-31T16:15:01.570Z,21.90
2022-08-31T16:20:04.504Z,21.80
2022-08-31T16:25:08.455Z,21.80
2022-08-31T16:30:12.145Z,21.70
2022-08-31T16:35:14.268Z,21.60
2022-08-31T16:40:16.722Z,21.60
2022-08-31T16:45:19.951Z,21.50
2022-08-31T16:50:21.864Z,21.40
2022-08-31T16:55:23.904Z,21.30
2022-08-31T17:00:27.407Z,21.20
2022-08-31T17:05:33.684Z,21.20
2022-08-31T17:10:35.613Z,21.20
2022-08-31T17:15:37.590Z,21.10
2022-08-31T17:20:42.105Z,21.10
2022-08-31T17:25:44.066Z,21.00
2022-08-31T17:30:51.380Z,21.00
2022-08-31T17:35:54.061Z,20.90
2022-08-31T17:41:05.264Z,20.80
2022-08-31T17:46:11.207Z,20.70
2022-08-31T17:51:28.026Z,20.60
2022-08-31T17:56:45.806Z,20.50
2022-08-31T18:01:52.899Z,20.50
2022-08-31T18:06:55.454Z,20.40
2022-08-31T18:11:57.873Z,20.30
2022-08-31T18:17:02.003Z,20.20
2022-08-31T18:22:04.101Z,20.20
2022-08-31T18:27:07.984Z,20.10
2022-08-31T18:32:10.788Z,20.10
2022-08-31T18:37:13.770Z,20.00
2022-08-31T18:42:34.306Z,19.90
2022-08-31T18:47:38.338Z,19.90
2022-08-31T18:52:40.399Z,19.90
2022-08-31T18:57:49.231Z,19.80
2022-08-31T19:02:51.981Z,19.80
2022-08-31T19:07:55.508Z,19.70
2022-08-31T19:12:57.481Z,19.60
2022-08-31T19:17:59.424Z,19.60
2022-08-31T19:23:01.351Z,19.60
2022-08-31T19:28:08.052Z,19.50
2022-08-31T19:33:12.399Z,19.50
2022-08-31T19:38:14.557Z,19.40
2022-08-31T19:48:46.077Z,19.30
2022-08-31T19:53:50.011Z,19.20
2022-08-31T19:58:53.324Z,19.20
2022-08-31T20:03:56.077Z,19.10
2022-08-31T20:08:58.453Z,19.00
2022-08-31T20:14:01.098Z,19.00
2022-08-31T20:19:08.893Z,19.00
2022-08-31T20:24:13.421Z,19.00
2022-08-31T20:29:18.178Z,18.90
2022-08-31T20:34:22.149Z,18.80
2022-08-31T20:39:26.443Z,18.90
2022-08-31T20:44:35.282Z,18.80
2022-08-31T20:49:40.174Z,18.70
2022-08-31T20:54:46.112Z,18.70
2022-08-31T20:59:50.837Z,18.70
2022-08-31T21:04:53.042Z,18.60
2022-08-31T21:09:55.096Z,18.60
2022-08-31T21:14:57.514Z,18.60
2022-08-31T21:20:01.254Z,18.60
2022-08-31T21:25:07.609Z,18.50
2022-08-31T21:30:11.324Z,18.50
2022-08-31T21:35:15.247Z,18.40
2022-08-31T21:40:18.484Z,18.40
2022-08-31T21:45:20.862Z,18.30
2022-08-31T21:50:22.960Z,18.20
2022-08-31T21:55:25.094Z,18.20
2022-08-31T22:00:32.514Z,18.20
2022-08-31T22:05:41.502Z,18.20
2022-08-31T22:10:44.417Z,18.10
2022-08-31T22:15:47.131Z,18.10
2022-08-31T22:20:49.238Z,18.10
2022-08-31T22:25:51.938Z,18.10
2022-08-31T22:30:54.984Z,18.10
2022-08-31T22:35:56.942Z,18.00
2022-08-31T22:41:03.645Z,18.00
2022-08-31T22:46:12.761Z,18.00
2022-08-31T22:51:16.345Z,17.90
2022-08-31T22:56:26.027Z,17.90
2022-08-31T23:01:32.699Z,17.80
2022-08-31T23:06:36.254Z,17.80
2022-08-31T23:11:39.070Z,17.80
2022-08-31T23:16:44.779Z,17.80
2022-08-31T23:21:53.039Z,17.70
2022-08-31T23:27:04.354Z,17.70
2022-08-31T23:32:12.107Z,17.60
2022-08-31T23:37:14.131Z,17.60
2022-08-31T23:42:16.881Z,17.60
2022-08-31T23:47:21.729Z,17.60
2022-08-31T23:52:29.215Z,17.50
2022-08-31T23:57:32.677Z,17.50
